South Montesano, Washington
Current Conditions -  °F | °C
As of 3:53 PM on Wednesday 28 Jan 2015 (Local Time) from KSHN Reporting Station
Overcast Overcast  
Wind Chill: 47°   Ceiling: 1300
Heat Index: 49°   Visibility: 10mi
Dew Point: 44°   Wind: 5mph
Humidity: 83%   Direction: 100°E
Pressure: 30.34"   Gusts: NA
Location:  47.555°N, 123.746°W
Report Text: KSHN 282353Z AUTO 10004KT 10SM OVC013 09/07 A3034 RMK AO2 SLP276 T00940067 10100 20083 56006
Loading
Personal Weather Stations






























Interactive Weather Map New forecast layout! Learn more

10-Day Weather Forecast

Advertisements
Track Severe Weather on mobile